Bruno, Canada
Current Conditions -  °F | °C
As of 9:00 AM on Saturday 20 Dec 2014 (Local Time) from CYXE Reporting Station
Light Snow Light Snow  
Wind Chill:   Ceiling: 700
Heat Index: 18°   Visibility: 3mi
Dew Point: 18°   Wind: 10mph
Humidity: 100%   Direction: 110°ESE
Pressure: 29.73"   Gusts: NA
Location:  52.27°N, 105.52°W
Report Text: CYXE 201500Z 11009KT 3SM -SN BR BKN007 OVC090 M08/M08 A2973 RMK ST5AC3 SLP103
Loading
Personal Weather Stations






























Interactive Weather Map New forecast layout! Learn more

10-Day Weather Forecast

Advertisements
Track Severe Weather on mobile